createdAt,value
2017-06-20T00:00:20.862Z,0
2017-06-20T00:01:01.319Z,0
2017-06-20T00:03:29.606Z,0
2017-06-20T00:04:10.063Z,0
2017-06-20T00:04:50.525Z,0
2017-06-20T00:05:30.986Z,0
2017-06-20T00:06:11.448Z,0
2017-06-20T00:06:51.902Z,0
2017-06-20T00:07:32.367Z,0
2017-06-20T00:08:12.828Z,0
2017-06-20T00:08:53.285Z,0
2017-06-20T00:09:33.741Z,0
2017-06-20T00:10:14.207Z,0
2017-06-20T00:10:54.661Z,0
2017-06-20T00:11:35.118Z,0
2017-06-20T00:12:15.575Z,0
2017-06-20T00:12:56.030Z,0
2017-06-20T00:13:36.482Z,0
2017-06-20T00:14:16.940Z,0
2017-06-20T00:14:57.404Z,0
2017-06-20T00:15:37.861Z,0
2017-06-20T00:16:18.316Z,0
2017-06-20T00:16:58.772Z,0
2017-06-20T00:17:39.230Z,0
2017-06-20T00:18:19.688Z,0
2017-06-20T00:19:00.146Z,0
2017-06-20T00:19:40.603Z,0
2017-06-20T00:20:21.068Z,0
2017-06-20T00:21:01.525Z,0
2017-06-20T00:21:41.982Z,0
2017-06-20T00:22:22.434Z,0
2017-06-20T00:23:02.894Z,0
2017-06-20T00:23:43.350Z,0
2017-06-20T00:24:23.832Z,0
2017-06-20T00:25:04.293Z,0
2017-06-20T00:25:44.759Z,0
2017-06-20T00:26:25.214Z,0
2017-06-20T00:27:05.672Z,0
2017-06-20T00:27:46.135Z,0
2017-06-20T00:28:26.586Z,0
2017-06-20T00:29:07.051Z,0
2017-06-20T00:29:47.512Z,0
2017-06-20T00:30:27.976Z,0
2017-06-20T00:31:08.432Z,0
2017-06-20T00:31:48.896Z,0
2017-06-20T00:32:29.353Z,0
2017-06-20T00:33:09.812Z,0
2017-06-20T00:33:50.273Z,0
2017-06-20T00:34:30.727Z,0
2017-06-20T00:35:11.195Z,0
2017-06-20T00:35:51.653Z,0
2017-06-20T00:36:32.110Z,0
2017-06-20T00:37:12.570Z,0
2017-06-20T00:37:53.025Z,0
2017-06-20T00:38:33.481Z,0
2017-06-20T00:39:13.936Z,0
2017-06-20T00:39:54.397Z,0
2017-06-20T00:40:34.852Z,0
2017-06-20T00:41:15.321Z,0
2017-06-20T00:41:55.785Z,0
2017-06-20T00:42:36.242Z,0
2017-06-20T00:43:16.695Z,0
2017-06-20T00:43:57.143Z,0
2017-06-20T00:44:37.606Z,0
2017-06-20T00:45:18.069Z,0
2017-06-20T00:45:58.523Z,0
2017-06-20T00:46:38.973Z,0
2017-06-20T00:47:19.429Z,0
2017-06-20T00:47:59.888Z,0
2017-06-20T00:48:40.347Z,0
2017-06-20T00:49:20.800Z,0
2017-06-20T00:50:01.266Z,0
2017-06-20T00:50:41.726Z,0
2017-06-20T00:51:22.189Z,0
2017-06-20T00:52:02.648Z,0
2017-06-20T00:52:43.103Z,0
2017-06-20T00:53:23.562Z,0
2017-06-20T00:54:04.021Z,0
2017-06-20T00:54:44.491Z,0
2017-06-20T00:55:24.949Z,0
2017-06-20T00:56:05.410Z,0
2017-06-20T00:56:45.864Z,0
2017-06-20T00:57:26.324Z,0
2017-06-20T00:58:06.781Z,0
2017-06-20T00:58:47.273Z,0
2017-06-20T00:59:27.729Z,0
2017-06-20T01:00:08.191Z,0
2017-06-20T01:00:48.649Z,0
2017-06-20T01:01:29.106Z,0
2017-06-20T01:02:09.565Z,0
2017-06-20T01:02:50.023Z,0
2017-06-20T01:03:30.482Z,0
2017-06-20T01:04:10.936Z,0
2017-06-20T01:04:51.393Z,0
2017-06-20T01:05:31.856Z,0
2017-06-20T01:06:12.313Z,0
2017-06-20T01:06:52.775Z,0
2017-06-20T01:07:33.233Z,0
2017-06-20T01:08:13.694Z,0
2017-06-20T01:08:54.143Z,0
2017-06-20T01:09:34.606Z,0
2017-06-20T01:10:15.067Z,0
2017-06-20T01:10:55.523Z,0
2017-06-20T01:11:35.981Z,0
2017-06-20T01:12:16.439Z,0
2017-06-20T01:12:56.899Z,0
2017-06-20T01:13:37.358Z,0
2017-06-20T01:14:17.818Z,0
2017-06-20T01:14:58.276Z,0
2017-06-20T01:15:38.737Z,0
2017-06-20T01:16:19.196Z,0
2017-06-20T01:16:59.654Z,0
2017-06-20T01:17:40.113Z,0
2017-06-20T01:18:20.571Z,0
2017-06-20T01:19:01.033Z,0
2017-06-20T01:19:41.486Z,0
2017-06-20T01:20:21.950Z,0
2017-06-20T01:21:02.412Z,0
2017-06-20T01:21:42.870Z,0
2017-06-20T01:22:23.330Z,0
2017-06-20T01:23:03.787Z,0
2017-06-20T01:23:44.245Z,0
2017-06-20T01:24:24.700Z,0
2017-06-20T01:25:05.159Z,0
2017-06-20T01:25:45.613Z,0
2017-06-20T01:26:26.072Z,0
2017-06-20T01:27:06.533Z,0
2017-06-20T01:27:46.992Z,0
2017-06-20T01:28:27.452Z,0
2017-06-20T01:29:07.913Z,0
2017-06-20T01:29:48.371Z,0
2017-06-20T01:30:28.835Z,0
2017-06-20T01:31:09.293Z,0
2017-06-20T01:31:49.757Z,0
2017-06-20T01:32:30.215Z,0
2017-06-20T01:33:10.674Z,0
2017-06-20T01:33:51.135Z,0
2017-06-20T01:34:31.595Z,0
2017-06-20T01:35:12.051Z,0
2017-06-20T01:35:52.509Z,0
2017-06-20T01:36:32.966Z,0
2017-06-20T01:37:13.422Z,0
2017-06-20T01:37:53.884Z,0
2017-06-20T01:38:34.345Z,0
2017-06-20T01:39:14.804Z,0
2017-06-20T01:39:55.264Z,0
2017-06-20T01:40:35.720Z,0
2017-06-20T01:41:16.183Z,0
2017-06-20T01:41:56.655Z,0
2017-06-20T01:42:37.110Z,0
2017-06-20T01:43:17.570Z,0
2017-06-20T01:43:58.032Z,0
2017-06-20T01:44:38.484Z,0
2017-06-20T01:45:18.987Z,0
2017-06-20T01:45:59.399Z,0
2017-06-20T01:46:39.862Z,0
2017-06-20T01:47:20.326Z,0
2017-06-20T01:48:00.786Z,0
2017-06-20T01:48:41.243Z,0
2017-06-20T01:49:21.706Z,0
2017-06-20T01:50:02.161Z,0
2017-06-20T01:50:42.617Z,0
2017-06-20T01:51:23.076Z,0
2017-06-20T01:52:03.533Z,0
2017-06-20T01:52:43.994Z,0
2017-06-20T01:53:24.450Z,0
2017-06-20T01:54:04.918Z,0
2017-06-20T01:54:45.391Z,0
2017-06-20T01:55:25.849Z,0
2017-06-20T01:56:06.308Z,0
2017-06-20T01:56:46.762Z,0
2017-06-20T01:57:27.221Z,0
2017-06-20T01:58:07.687Z,0
2017-06-20T01:58:48.140Z,0
2017-06-20T01:59:28.600Z,0
2017-06-20T02:00:09.057Z,0
2017-06-20T02:00:49.519Z,0
2017-06-20T02:01:29.975Z,0
2017-06-20T02:02:10.438Z,0
2017-06-20T02:02:50.897Z,0
2017-06-20T02:03:31.356Z,0
2017-06-20T02:04:11.813Z,0
2017-06-20T02:04:52.274Z,0
2017-06-20T02:05:32.736Z,0
2017-06-20T02:06:13.198Z,0
2017-06-20T02:06:53.652Z,0
2017-06-20T02:07:34.120Z,0
2017-06-20T02:08:14.585Z,0
2017-06-20T02:08:55.043Z,0
2017-06-20T02:09:35.500Z,0
2017-06-20T02:10:15.963Z,0
2017-06-20T02:10:56.421Z,0
2017-06-20T02:11:36.881Z,0
2017-06-20T02:12:17.353Z,0
2017-06-20T02:12:57.802Z,0
2017-06-20T02:13:38.264Z,0
2017-06-20T02:14:18.726Z,0
2017-06-20T02:14:59.169Z,0
2017-06-20T02:15:39.623Z,0
2017-06-20T02:16:20.082Z,0
2017-06-20T02:17:00.543Z,0
2017-06-20T02:17:40.999Z,0
2017-06-20T02:18:21.459Z,0
2017-06-20T02:19:01.916Z,0
2017-06-20T02:19:42.375Z,0
2017-06-20T02:20:22.837Z,0
2017-06-20T02:21:03.295Z,0
2017-06-20T02:21:43.757Z,0
2017-06-20T02:22:24.211Z,0
2017-06-20T02:23:04.669Z,0
2017-06-20T02:23:45.128Z,0
2017-06-20T02:24:25.585Z,0
2017-06-20T02:25:06.044Z,0
2017-06-20T02:25:46.503Z,0
2017-06-20T02:26:26.964Z,0
2017-06-20T02:27:07.419Z,0
2017-06-20T02:27:47.878Z,0
2017-06-20T02:28:28.336Z,0
2017-06-20T02:29:08.797Z,0
2017-06-20T02:29:49.257Z,0
2017-06-20T02:30:29.715Z,0
2017-06-20T02:31:10.170Z,0
2017-06-20T02:31:50.628Z,0
2017-06-20T02:32:31.087Z,0
2017-06-20T02:33:11.548Z,0
2017-06-20T02:33:52.005Z,0
2017-06-20T02:34:32.463Z,0
2017-06-20T02:35:12.927Z,0
2017-06-20T02:35:53.379Z,0
2017-06-20T02:36:33.839Z,0
2017-06-20T02:37:14.295Z,0
2017-06-20T02:37:54.756Z,0
2017-06-20T02:38:35.212Z,0
2017-06-20T02:39:15.672Z,0
2017-06-20T02:39:56.131Z,0
2017-06-20T02:40:36.594Z,0
2017-06-20T02:41:17.053Z,0
2017-06-20T02:41:57.508Z,0
2017-06-20T02:42:37.965Z,0
2017-06-20T02:43:18.423Z,0
2017-06-20T02:43:58.883Z,0
2017-06-20T02:44:39.354Z,0
2017-06-20T02:45:19.814Z,0
2017-06-20T02:46:00.273Z,0
2017-06-20T02:46:40.726Z,0
2017-06-20T02:47:21.188Z,0
2017-06-20T02:48:01.643Z,0
2017-06-20T02:48:42.100Z,0
2017-06-20T02:49:22.563Z,0
2017-06-20T02:50:03.021Z,0
2017-06-20T02:50:43.481Z,0
2017-06-20T02:51:23.946Z,0
2017-06-20T02:52:04.398Z,0
2017-06-20T02:52:44.857Z,0
2017-06-20T02:53:25.324Z,0
2017-06-20T02:54:05.782Z,0
2017-06-20T02:54:46.244Z,0
2017-06-20T02:55:26.700Z,0
2017-06-20T02:56:07.160Z,0
2017-06-20T02:56:47.624Z,0
2017-06-20T02:57:28.089Z,4
2017-06-20T02:58:08.545Z,4
2017-06-20T02:58:49.010Z,4
2017-06-20T02:59:29.464Z,4
2017-06-20T03:00:09.923Z,4
2017-06-20T03:00:50.391Z,0
2017-06-20T03:01:30.856Z,0
2017-06-20T03:02:11.315Z,0
2017-06-20T03:02:51.775Z,4
2017-06-20T03:03:32.231Z,4
2017-06-20T03:04:12.691Z,4
2017-06-20T03:04:53.147Z,4
2017-06-20T03:05:33.604Z,4
2017-06-20T03:06:14.060Z,4
2017-06-20T03:06:54.521Z,4
2017-06-20T03:07:34.978Z,4
2017-06-20T03:08:15.440Z,4
2017-06-20T03:08:55.898Z,4
2017-06-20T03:09:36.374Z,4
2017-06-20T03:10:16.835Z,4
2017-06-20T03:10:57.285Z,8
2017-06-20T03:11:37.749Z,8
2017-06-20T03:12:18.209Z,4
2017-06-20T03:12:58.673Z,4
2017-06-20T03:13:39.156Z,8
2017-06-20T03:14:19.625Z,8
2017-06-20T03:15:00.215Z,8
2017-06-20T03:15:40.718Z,8
2017-06-20T03:16:21.178Z,8
2017-06-20T03:17:01.644Z,8
2017-06-20T03:17:42.102Z,8
2017-06-20T03:18:22.560Z,8
2017-06-20T03:19:03.021Z,12
2017-06-20T03:19:43.480Z,12
2017-06-20T03:20:23.947Z,12
2017-06-20T03:21:04.409Z,12
2017-06-20T03:21:44.868Z,16
2017-06-20T03:22:25.326Z,12
2017-06-20T03:23:05.784Z,16
2017-06-20T03:23:46.233Z,12
2017-06-20T03:24:26.692Z,16
2017-06-20T03:25:07.151Z,16
2017-06-20T03:25:47.610Z,16
2017-06-20T03:26:28.068Z,16
2017-06-20T03:27:08.530Z,20
2017-06-20T03:27:48.987Z,16
2017-06-20T03:28:29.445Z,20
2017-06-20T03:29:09.905Z,24
2017-06-20T03:29:50.380Z,20
2017-06-20T03:30:30.843Z,24
2017-06-20T03:31:11.300Z,24
2017-06-20T03:31:51.757Z,24
2017-06-20T03:32:32.216Z,24
2017-06-20T03:33:12.679Z,28
2017-06-20T03:33:53.137Z,24
2017-06-20T03:34:33.588Z,28
2017-06-20T03:35:14.041Z,28
2017-06-20T03:35:54.524Z,32
2017-06-20T03:36:34.985Z,32
2017-06-20T03:37:15.442Z,32
2017-06-20T03:37:55.949Z,32
2017-06-20T03:38:36.406Z,36
2017-06-20T03:39:16.861Z,36
2017-06-20T03:39:57.319Z,40
2017-06-20T03:40:37.778Z,40
2017-06-20T03:41:18.235Z,36
2017-06-20T03:41:58.697Z,40
2017-06-20T03:42:39.162Z,40
2017-06-20T03:43:19.619Z,44
2017-06-20T03:44:00.081Z,44
2017-06-20T03:44:40.548Z,44
2017-06-20T03:45:21.006Z,48
2017-06-20T03:46:01.456Z,48
2017-06-20T03:46:41.919Z,52
2017-06-20T03:47:22.379Z,52
2017-06-20T03:48:02.847Z,56
2017-06-20T03:48:43.308Z,36
2017-06-20T03:49:23.772Z,152
2017-06-20T03:50:04.231Z,156
2017-06-20T03:50:44.692Z,164
2017-06-20T03:51:25.153Z,84
2017-06-20T03:52:05.606Z,88
2017-06-20T03:52:46.065Z,88
2017-06-20T03:53:26.530Z,92
2017-06-20T03:54:06.988Z,96
2017-06-20T03:54:47.448Z,100
2017-06-20T03:55:27.905Z,100
2017-06-20T03:56:08.368Z,104
2017-06-20T03:56:48.880Z,104
2017-06-20T03:57:29.279Z,104
2017-06-20T03:58:09.742Z,108
2017-06-20T03:58:50.193Z,108
2017-06-20T03:59:30.657Z,116
2017-06-20T04:00:11.118Z,116
2017-06-20T04:00:51.575Z,120
2017-06-20T04:01:32.033Z,120
2017-06-20T04:02:12.492Z,124
2017-06-20T04:02:52.947Z,124
2017-06-20T04:03:33.410Z,128
2017-06-20T04:04:13.867Z,132
2017-06-20T04:04:54.325Z,132
2017-06-20T04:05:34.780Z,132
2017-06-20T04:06:15.239Z,140
2017-06-20T04:06:55.697Z,140
2017-06-20T04:07:36.149Z,140
2017-06-20T04:08:16.609Z,140
2017-06-20T04:08:57.059Z,148
2017-06-20T04:09:37.522Z,148
2017-06-20T04:10:17.973Z,148
2017-06-20T04:10:58.435Z,152
2017-06-20T04:11:38.899Z,152
2017-06-20T04:12:19.359Z,160
2017-06-20T04:12:59.818Z,160
2017-06-20T04:13:40.280Z,164
2017-06-20T04:14:20.735Z,164
2017-06-20T04:15:01.188Z,168
2017-06-20T04:15:41.651Z,168
2017-06-20T04:16:22.104Z,172
2017-06-20T04:17:02.563Z,172
2017-06-20T04:17:43.030Z,176
2017-06-20T04:18:23.489Z,180
2017-06-20T04:19:03.948Z,184
2017-06-20T04:19:44.408Z,184
2017-06-20T04:20:24.869Z,184
2017-06-20T04:21:05.325Z,188
2017-06-20T04:21:45.789Z,196
2017-06-20T04:22:26.248Z,196
2017-06-20T04:23:06.706Z,200
2017-06-20T04:23:47.169Z,204
2017-06-20T04:24:27.631Z,204
2017-06-20T04:25:08.089Z,208
2017-06-20T04:25:48.548Z,212
2017-06-20T04:26:29.006Z,212
2017-06-20T04:27:09.462Z,220
2017-06-20T04:27:49.929Z,224
2017-06-20T04:28:30.385Z,224
2017-06-20T04:29:10.848Z,228
2017-06-20T04:29:51.310Z,232
2017-06-20T04:30:31.769Z,236
2017-06-20T04:31:12.226Z,236
2017-06-20T04:31:52.676Z,240
2017-06-20T04:32:33.134Z,244
2017-06-20T04:33:13.606Z,244
2017-06-20T04:33:54.073Z,252
2017-06-20T04:34:34.528Z,252
2017-06-20T04:35:14.992Z,256
2017-06-20T04:35:55.445Z,260
2017-06-20T04:36:35.905Z,260
2017-06-20T04:37:16.362Z,264
2017-06-20T04:37:56.831Z,268
2017-06-20T04:38:37.286Z,272
2017-06-20T04:39:17.748Z,272
2017-06-20T04:39:58.205Z,272
2017-06-20T04:40:38.667Z,276
2017-06-20T04:41:19.136Z,280
2017-06-20T04:41:59.593Z,284
2017-06-20T04:42:40.053Z,284
2017-06-20T04:43:20.513Z,288
2017-06-20T04:44:00.972Z,292
2017-06-20T04:44:41.429Z,296
2017-06-20T04:45:21.891Z,300
2017-06-20T04:46:02.348Z,300
2017-06-20T04:46:42.808Z,304
2017-06-20T04:47:23.266Z,308
2017-06-20T04:48:03.723Z,308
2017-06-20T04:48:44.182Z,312
2017-06-20T04:49:24.639Z,316
2017-06-20T04:50:05.099Z,320
2017-06-20T04:50:45.559Z,324
2017-06-20T04:51:26.017Z,328
2017-06-20T04:52:06.478Z,332
2017-06-20T04:52:46.937Z,336
2017-06-20T04:53:27.394Z,336
2017-06-20T04:54:07.856Z,344
2017-06-20T04:54:48.314Z,348
2017-06-20T04:55:28.774Z,348
2017-06-20T04:56:09.233Z,348
2017-06-20T04:56:49.691Z,356
2017-06-20T04:57:30.219Z,356
2017-06-20T04:58:10.651Z,364
2017-06-20T04:58:51.110Z,368
2017-06-20T04:59:31.570Z,368
2017-06-20T05:00:12.018Z,372
2017-06-20T05:00:52.476Z,376
2017-06-20T05:01:32.938Z,380
2017-06-20T05:02:13.399Z,384
2017-06-20T05:02:53.852Z,384
2017-06-20T05:03:34.440Z,384
2017-06-20T05:04:14.903Z,388
2017-06-20T05:04:55.365Z,396
2017-06-20T05:05:35.827Z,400
2017-06-20T05:06:16.293Z,404
2017-06-20T05:06:56.755Z,404
2017-06-20T05:07:37.211Z,412
2017-06-20T05:08:17.671Z,412
2017-06-20T05:08:58.131Z,420
2017-06-20T05:09:38.588Z,420
2017-06-20T05:10:19.069Z,424
2017-06-20T05:10:59.505Z,428
2017-06-20T05:11:39.958Z,432
2017-06-20T05:12:20.420Z,436
2017-06-20T05:13:00.883Z,440
2017-06-20T05:13:41.345Z,444
2017-06-20T05:14:21.806Z,448
2017-06-20T05:15:02.265Z,448
2017-06-20T05:15:42.725Z,456
2017-06-20T05:16:23.186Z,456
2017-06-20T05:17:03.642Z,460
2017-06-20T05:17:44.099Z,464
2017-06-20T05:18:24.562Z,472
2017-06-20T05:19:05.023Z,476
2017-06-20T05:19:45.490Z,480
2017-06-20T05:20:25.952Z,476
2017-06-20T05:21:06.415Z,472
2017-06-20T05:21:46.874Z,480
2017-06-20T05:22:27.332Z,488
2017-06-20T05:23:07.799Z,500
2017-06-20T05:23:48.259Z,508
2017-06-20T05:24:28.718Z,508
2017-06-20T05:25:09.183Z,512
2017-06-20T05:25:49.635Z,520
2017-06-20T05:26:30.094Z,520
2017-06-20T05:27:10.551Z,524
2017-06-20T05:27:51.011Z,528
2017-06-20T05:28:31.469Z,532
2017-06-20T05:29:11.936Z,536
2017-06-20T05:29:52.400Z,536
2017-06-20T05:30:32.855Z,540
2017-06-20T05:31:13.312Z,544
2017-06-20T05:31:53.772Z,548
2017-06-20T05:32:34.230Z,552
2017-06-20T05:33:14.686Z,556
2017-06-20T05:33:55.147Z,560
2017-06-20T05:34:35.604Z,564
2017-06-20T05:35:16.059Z,564
2017-06-20T05:35:56.522Z,568
2017-06-20T05:36:36.988Z,572
2017-06-20T05:37:17.450Z,572
2017-06-20T05:37:57.911Z,576
2017-06-20T05:38:38.369Z,576
2017-06-20T05:39:18.831Z,580
2017-06-20T05:39:59.294Z,580
2017-06-20T05:40:39.752Z,584
2017-06-20T05:41:20.213Z,588
2017-06-20T05:42:00.674Z,588
2017-06-20T05:42:41.130Z,592
2017-06-20T05:43:21.589Z,596
2017-06-20T05:44:02.049Z,596
2017-06-20T05:44:42.507Z,600
2017-06-20T05:45:22.988Z,604
2017-06-20T05:46:03.446Z,608
2017-06-20T05:46:43.907Z,612
2017-06-20T05:47:24.358Z,612
2017-06-20T05:48:04.820Z,620
2017-06-20T05:48:45.281Z,624
2017-06-20T05:49:25.740Z,628
2017-06-20T05:50:06.193Z,628
2017-06-20T05:50:46.653Z,632
2017-06-20T05:51:27.112Z,636
2017-06-20T05:52:07.570Z,640
2017-06-20T05:52:48.032Z,644
2017-06-20T05:53:28.491Z,648
2017-06-20T05:54:08.954Z,656
2017-06-20T05:54:49.412Z,656
2017-06-20T05:55:29.873Z,664
2017-06-20T05:56:10.333Z,672
2017-06-20T05:56:50.791Z,676
2017-06-20T05:57:31.256Z,684
2017-06-20T05:58:11.717Z,684
2017-06-20T05:58:52.174Z,684
2017-06-20T05:59:32.631Z,696
2017-06-20T06:00:13.091Z,704
2017-06-20T06:00:53.548Z,708
2017-06-20T06:01:34.004Z,708
2017-06-20T06:02:14.465Z,712
2017-06-20T06:02:54.923Z,720
2017-06-20T06:03:35.381Z,720
2017-06-20T06:04:15.849Z,724
2017-06-20T06:04:56.304Z,728
2017-06-20T06:05:36.761Z,732
2017-06-20T06:06:17.225Z,736
2017-06-20T06:06:57.678Z,736
2017-06-20T06:07:38.133Z,744
2017-06-20T06:08:18.586Z,744
2017-06-20T06:08:59.047Z,748
2017-06-20T06:09:39.537Z,752
2017-06-20T06:10:19.996Z,756
2017-06-20T06:11:00.459Z,764
2017-06-20T06:11:40.925Z,768
2017-06-20T06:12:21.385Z,768
2017-06-20T06:13:01.860Z,772
2017-06-20T06:13:42.289Z,772
2017-06-20T06:14:22.747Z,780
2017-06-20T06:15:03.210Z,780
2017-06-20T06:15:43.670Z,780
2017-06-20T06:16:24.128Z,788
2017-06-20T06:17:04.595Z,792
2017-06-20T06:17:45.054Z,792
2017-06-20T06:18:25.514Z,800
2017-06-20T06:19:05.975Z,800
2017-06-20T06:19:46.434Z,800
2017-06-20T06:20:26.890Z,804
2017-06-20T06:21:07.350Z,808
2017-06-20T06:21:47.808Z,812
2017-06-20T06:22:28.269Z,816
2017-06-20T06:23:08.735Z,820
2017-06-20T06:23:49.194Z,824
2017-06-20T06:24:29.654Z,828
2017-06-20T06:25:10.111Z,836
2017-06-20T06:25:50.572Z,840
2017-06-20T06:26:31.026Z,848
2017-06-20T06:27:11.485Z,852
2017-06-20T06:27:51.944Z,860
2017-06-20T06:28:32.395Z,864
2017-06-20T06:29:12.856Z,872
2017-06-20T06:29:53.320Z,876
2017-06-20T06:30:33.780Z,884
2017-06-20T06:31:14.241Z,888
2017-06-20T06:31:54.698Z,892
2017-06-20T06:32:35.155Z,900
2017-06-20T06:33:15.614Z,904
2017-06-20T06:33:56.076Z,912
2017-06-20T06:34:36.536Z,912
2017-06-20T06:35:16.996Z,916
2017-06-20T06:35:57.458Z,924
2017-06-20T06:36:37.936Z,928
2017-06-20T06:37:18.381Z,928
2017-06-20T06:37:58.841Z,936
2017-06-20T06:38:39.297Z,936
2017-06-20T06:39:19.752Z,944
2017-06-20T06:40:00.214Z,948
2017-06-20T06:40:40.672Z,952
2017-06-20T06:41:21.131Z,960
2017-06-20T06:42:01.588Z,964
2017-06-20T06:42:42.049Z,968
2017-06-20T06:43:22.513Z,972
2017-06-20T06:44:02.974Z,980
2017-06-20T06:44:43.433Z,980
2017-06-20T06:45:23.891Z,988
2017-06-20T06:46:04.349Z,992
2017-06-20T06:46:44.813Z,1000
2017-06-20T06:47:25.273Z,1000
2017-06-20T06:48:05.733Z,1004
2017-06-20T06:48:46.193Z,1012
2017-06-20T06:49:26.653Z,1016
2017-06-20T06:50:07.112Z,1024
2017-06-20T06:50:47.572Z,1028
2017-06-20T06:51:28.032Z,1032
2017-06-20T06:52:08.495Z,1036
2017-06-20T06:52:48.952Z,1044
2017-06-20T06:53:29.413Z,1048
2017-06-20T06:54:09.873Z,1056
2017-06-20T06:54:50.332Z,1064
2017-06-20T06:55:30.791Z,1076
2017-06-20T06:56:11.252Z,1084
2017-06-20T06:56:51.709Z,1104
2017-06-20T06:57:32.171Z,1104
2017-06-20T06:58:12.629Z,1108
2017-06-20T06:58:53.089Z,1112
2017-06-20T06:59:33.548Z,1132
2017-06-20T07:00:14.008Z,1136
2017-06-20T07:00:54.481Z,1136
2017-06-20T07:01:34.930Z,1136
2017-06-20T07:02:15.390Z,1148
2017-06-20T07:02:55.848Z,1164
2017-06-20T07:03:36.301Z,1176
2017-06-20T07:04:16.759Z,1188
2017-06-20T07:04:57.218Z,1212
2017-06-20T07:05:37.678Z,1212
2017-06-20T07:06:18.137Z,1200
2017-06-20T07:06:58.594Z,1192
2017-06-20T07:07:39.053Z,1168
2017-06-20T07:08:19.513Z,1132
2017-06-20T07:08:59.971Z,1168
2017-06-20T07:09:40.430Z,1172
2017-06-20T07:10:20.897Z,1180
2017-06-20T07:11:01.354Z,1184
2017-06-20T07:11:41.816Z,1188
2017-06-20T07:12:22.273Z,1196
2017-06-20T07:13:02.744Z,1200
2017-06-20T07:13:43.203Z,1216
2017-06-20T07:14:23.668Z,1228
2017-06-20T07:15:04.126Z,1240
2017-06-20T07:15:44.587Z,1248
2017-06-20T07:16:25.042Z,1256
2017-06-20T07:17:05.504Z,1268
2017-06-20T07:17:45.968Z,1268
2017-06-20T07:18:26.424Z,1264
2017-06-20T07:19:06.892Z,1260
2017-06-20T07:19:47.343Z,1268
2017-06-20T07:20:27.806Z,1284
2017-06-20T07:21:08.269Z,1300
2017-06-20T07:21:48.727Z,1316
2017-06-20T07:22:29.188Z,1332
2017-06-20T07:23:09.652Z,1356
2017-06-20T07:23:50.117Z,1376
2017-06-20T07:24:30.574Z,1388
2017-06-20T07:25:11.038Z,1224
2017-06-20T07:25:51.496Z,880
2017-06-20T07:26:31.957Z,828
2017-06-20T07:27:12.414Z,1396
2017-06-20T07:27:52.879Z,1380
2017-06-20T07:28:33.337Z,1400
2017-06-20T07:29:13.798Z,1404
2017-06-20T07:29:54.259Z,1412
2017-06-20T07:30:34.723Z,1396
2017-06-20T07:31:15.181Z,1396
2017-06-20T07:31:55.642Z,1416
2017-06-20T07:32:36.101Z,1308
2017-06-20T07:33:16.559Z,1264
2017-06-20T07:33:57.021Z,1432
2017-06-20T07:34:37.483Z,1412
2017-06-20T07:35:17.943Z,1432
2017-06-20T07:35:58.401Z,1428
2017-06-20T07:36:38.907Z,1420
2017-06-20T07:37:19.401Z,1408
2017-06-20T07:37:59.853Z,1412
2017-06-20T07:38:40.311Z,1460
2017-06-20T07:39:20.772Z,1468
2017-06-20T07:40:01.234Z,1468
2017-06-20T07:40:41.693Z,1476
2017-06-20T07:41:22.154Z,1480
2017-06-20T07:42:02.615Z,1496
2017-06-20T07:42:43.076Z,1488
2017-06-20T07:43:23.534Z,1492
2017-06-20T07:44:03.994Z,1544
2017-06-20T07:44:44.455Z,1540
2017-06-20T07:45:24.913Z,1552
2017-06-20T07:46:05.360Z,1572
2017-06-20T07:46:45.828Z,1572
2017-06-20T07:47:26.287Z,1572
2017-06-20T07:48:06.746Z,1576
2017-06-20T07:48:47.206Z,1560
2017-06-20T07:49:27.665Z,1572
2017-06-20T07:50:08.128Z,1552
2017-06-20T07:50:48.589Z,1524
2017-06-20T07:51:29.045Z,1484
2017-06-20T07:52:09.505Z,1528
2017-06-20T07:52:49.963Z,1500
2017-06-20T07:53:30.417Z,1496
2017-06-20T07:54:10.876Z,1528
2017-06-20T07:54:51.337Z,1548
2017-06-20T07:55:31.795Z,1564
2017-06-20T07:56:12.247Z,1604
2017-06-20T07:56:52.711Z,1604
2017-06-20T07:57:33.170Z,1628
2017-06-20T07:58:13.630Z,1628
2017-06-20T07:58:54.098Z,1648
2017-06-20T07:59:34.595Z,1676
2017-06-20T08:00:15.055Z,1680
2017-06-20T08:00:55.512Z,1696
2017-06-20T08:01:35.976Z,1720
2017-06-20T08:02:16.438Z,1732
2017-06-20T08:02:56.892Z,1700
2017-06-20T08:03:37.356Z,1724
2017-06-20T08:04:17.823Z,1752
2017-06-20T08:04:58.289Z,1764
2017-06-20T08:05:38.747Z,1776
2017-06-20T08:06:19.208Z,1760
2017-06-20T08:06:59.651Z,1744
2017-06-20T08:07:40.114Z,1740
2017-06-20T08:08:20.588Z,1760
2017-06-20T08:09:01.055Z,1808
2017-06-20T08:09:41.512Z,1828
2017-06-20T08:10:21.972Z,1832
2017-06-20T08:11:02.446Z,1844
2017-06-20T08:11:42.909Z,1848
2017-06-20T08:12:23.465Z,1852
2017-06-20T08:13:03.931Z,1852
2017-06-20T08:13:44.379Z,1860
2017-06-20T08:14:24.876Z,1872
2017-06-20T08:15:05.301Z,1880
2017-06-20T08:15:45.788Z,1892
2017-06-20T08:16:26.252Z,1900
2017-06-20T08:17:06.713Z,1908
2017-06-20T08:17:47.169Z,1912
2017-06-20T08:18:27.746Z,1912
2017-06-20T08:19:08.207Z,1924
2017-06-20T08:19:48.679Z,1920
2017-06-20T08:20:29.110Z,1920
2017-06-20T08:21:09.570Z,1948
2017-06-20T08:21:50.044Z,1964
2017-06-20T08:22:30.499Z,1968
2017-06-20T08:23:10.958Z,1976
2017-06-20T08:23:51.412Z,1984
2017-06-20T08:24:31.875Z,1988
2017-06-20T08:25:12.330Z,2000
2017-06-20T08:25:52.790Z,2016
2017-06-20T08:26:33.251Z,2024
2017-06-20T08:27:13.707Z,2032
2017-06-20T08:27:54.167Z,2040
2017-06-20T08:28:34.617Z,2032
2017-06-20T08:29:15.072Z,2016
2017-06-20T08:29:55.529Z,2040
2017-06-20T08:30:35.988Z,2048
2017-06-20T08:31:16.449Z,2088
2017-06-20T08:31:56.914Z,2072
2017-06-20T08:32:37.398Z,2104
2017-06-20T08:33:17.829Z,2104
2017-06-20T08:33:58.288Z,2112
2017-06-20T08:34:38.745Z,2120
2017-06-20T08:35:19.206Z,2112
2017-06-20T08:35:59.666Z,2128
2017-06-20T08:36:40.126Z,2120
2017-06-20T08:37:20.581Z,2128
2017-06-20T08:38:01.041Z,2152
2017-06-20T08:38:41.504Z,2148
2017-06-20T08:39:21.953Z,2152
2017-06-20T08:40:02.413Z,2180
2017-06-20T08:40:42.875Z,2188
2017-06-20T08:41:23.337Z,2184
2017-06-20T08:42:03.798Z,2180
2017-06-20T08:42:44.256Z,2192
2017-06-20T08:43:24.718Z,2188
2017-06-20T08:44:05.177Z,2200
2017-06-20T08:44:45.638Z,2208
2017-06-20T08:45:26.100Z,2208
2017-06-20T08:46:06.589Z,2200
2017-06-20T08:46:47.036Z,2196
2017-06-20T08:47:27.496Z,2188
2017-06-20T08:48:07.957Z,2152
2017-06-20T08:48:48.414Z,2152
2017-06-20T08:49:28.877Z,2176
2017-06-20T08:50:09.338Z,2148
2017-06-20T08:50:49.799Z,2176
2017-06-20T08:51:30.257Z,2136
2017-06-20T08:52:10.716Z,2096
2017-06-20T08:52:51.179Z,2112
2017-06-20T08:53:31.635Z,2184
2017-06-20T08:54:12.093Z,2244
2017-06-20T08:54:52.548Z,2260
2017-06-20T08:55:33.008Z,2272
2017-06-20T08:56:13.466Z,2284
2017-06-20T08:56:53.931Z,2284
2017-06-20T08:57:34.391Z,2264
2017-06-20T08:58:14.850Z,2272
2017-06-20T08:58:55.310Z,2304
2017-06-20T08:59:35.772Z,2312
2017-06-20T09:00:16.221Z,2312
2017-06-20T09:00:56.681Z,2324
2017-06-20T09:01:37.143Z,2324
2017-06-20T09:02:17.608Z,2184
2017-06-20T09:02:58.058Z,2340
2017-06-20T09:03:38.507Z,2328
2017-06-20T09:04:18.965Z,2328
2017-06-20T09:04:59.424Z,2328
2017-06-20T09:05:39.887Z,2356
2017-06-20T09:06:20.343Z,2340
2017-06-20T09:07:00.809Z,2316
2017-06-20T09:07:41.274Z,2344
2017-06-20T09:08:21.711Z,2360
2017-06-20T09:09:02.169Z,2372
2017-06-20T09:09:42.632Z,2392
2017-06-20T09:10:23.088Z,2384
2017-06-20T09:11:03.545Z,2396
2017-06-20T09:11:44.005Z,2412
2017-06-20T09:12:24.440Z,2324
2017-06-20T09:13:05.029Z,2380
2017-06-20T09:13:45.491Z,2408
2017-06-20T09:14:25.934Z,2416
2017-06-20T09:15:06.396Z,2412
2017-06-20T09:15:46.860Z,2404
2017-06-20T09:16:27.312Z,2416
2017-06-20T09:17:07.797Z,2412
2017-06-20T09:17:48.255Z,2408
2017-06-20T09:18:28.716Z,2416
2017-06-20T09:19:09.176Z,2408
2017-06-20T09:19:49.638Z,2420
2017-06-20T09:20:30.097Z,2432
2017-06-20T09:21:10.548Z,2440
2017-06-20T09:21:51.005Z,2444
2017-06-20T09:22:31.461Z,2436
2017-06-20T09:23:11.921Z,2440
2017-06-20T09:23:52.368Z,2460
2017-06-20T09:24:32.829Z,2432
2017-06-20T09:25:13.295Z,2468
2017-06-20T09:25:53.767Z,2468
2017-06-20T09:26:34.218Z,2476
2017-06-20T09:27:14.672Z,2472
2017-06-20T09:27:55.177Z,2480